Time;durP1;ratioP1;P1;durP2;ratioP2;P2;SDS_P1;SDS_P2;PMS_P1;PMS_P2;Temp;Humidity;BMP_temperature;BMP_pressure;BME280_temperature;BME280_humidity;BME280_pressure;Samples;Min_cycle;Max_cycle;Signal;HPM_P1;HPM_P2
2022/07/09 00:02:07;;;;;;;9.10;1.10;;;;;;;;;;102381;1335;22862;-25
2022/07/09 00:04:36;;;;;;;4.20;1.10;;;;;;;;;;102301;1335;22615;-25
2022/07/09 00:07:05;;;;;;;2.60;0.90;;;;;;;;;;102326;1335;22803;-29
2022/07/09 00:09:34;;;;;;;5.40;0.70;;;;;;;;;;102302;1335;22867;-30
2022/07/09 00:12:03;;;;;;;2.70;0.80;;;;;;;;;;102307;1336;22608;-30
2022/07/09 00:14:32;;;;;;;1.10;0.60;;;;;;;;;;102275;1329;22676;-27
2022/07/09 00:17:00;;;;;;;6.00;1.10;;;;;;;;;;102226;1335;22594;-29
2022/07/09 00:19:29;;;;;;;2.00;0.90;;;;;;;;;;102311;1335;22626;-26
2022/07/09 00:21:58;;;;;;;5.60;0.70;;;;;;;;;;102286;1335;22645;-25
2022/07/09 00:24:27;;;;;;;5.00;0.80;;;;;;;;;;102336;1335;22599;-28
2022/07/09 00:26:56;;;;;;;3.00;1.80;;;;;;;;;;102366;1335;22722;-29
2022/07/09 00:29:24;;;;;;;2.70;1.30;;;;;;;;;;102343;1335;22704;-28
2022/07/09 00:31:53;;;;;;;2.10;1.10;;;;;;;;;;102321;1335;22707;-24
2022/07/09 00:34:22;;;;;;;6.50;0.80;;;;;;;;;;102363;1335;22615;-29
2022/07/09 00:36:51;;;;;;;3.80;1.10;;;;;;;;;;102263;1332;22605;-24
2022/07/09 00:39:20;;;;;;;1.80;0.80;;;;;;;;;;102328;1335;22603;-31
2022/07/09 00:41:48;;;;;;;1.50;0.50;;;;;;;;;;102441;1335;22596;-27
2022/07/09 00:44:17;;;;;;;3.50;1.00;;;;;;;;;;102267;1329;22609;-28
2022/07/09 00:46:46;;;;;;;6.50;1.10;;;;;;;;;;102327;1335;22583;-24
2022/07/09 00:49:15;;;;;;;3.50;1.20;;;;;;;;;;102377;1335;22717;-28
2022/07/09 00:51:44;;;;;;;1.30;0.60;;;;;;;;;;102327;1335;22635;-31
2022/07/09 00:54:13;;;;;;;4.80;0.90;;;;;;;;;;102347;1335;22663;-29
2022/07/09 00:56:41;;;;;;;6.40;0.80;;;;;;;;;;102347;1335;22538;-29
2022/07/09 00:59:12;;;;;;;5.00;0.80;;;;;;;;;;102396;1334;22601;-29
2022/07/09 01:01:41;;;;;;;3.60;0.80;;;;;;;;;;102292;1335;22597;-30
2022/07/09 01:04:10;;;;;;;3.00;0.60;;;;;;;;;;102414;1335;22610;-26
2022/07/09 01:06:39;;;;;;;3.10;1.20;;;;;;;;;;102398;1335;22655;-26
2022/07/09 01:09:07;;;;;;;2.30;1.10;;;;;;;;;;102389;1335;22605;-24
2022/07/09 01:11:36;;;;;;;8.40;1.20;;;;;;;;;;102303;1330;22684;-25
2022/07/09 01:14:05;;;;;;;3.80;0.80;;;;;;;;;;102393;1335;22642;-29
2022/07/09 01:16:34;;;;;;;3.60;0.80;;;;;;;;;;102320;1335;22699;-27
2022/07/09 01:19:03;;;;;;;8.10;0.90;;;;;;;;;;102293;1335;22706;-28
2022/07/09 01:21:32;;;;;;;4.00;0.80;;;;;;;;;;102330;1335;22582;-27
2022/07/09 01:24:01;;;;;;;7.60;2.20;;;;;;;;;;102262;1335;22714;-28
2022/07/09 01:26:30;;;;;;;4.20;1.20;;;;;;;;;;102306;1335;22588;-25
2022/07/09 01:28:59;;;;;;;3.40;1.20;;;;;;;;;;102406;1335;22597;-30
2022/07/09 01:31:28;;;;;;;3.10;0.60;;;;;;;;;;102315;1335;22704;-30
2022/07/09 01:33:57;;;;;;;11.30;1.10;;;;;;;;;;102293;1335;22696;-29
2022/07/09 01:36:25;;;;;;;1.80;0.60;;;;;;;;;;102345;1335;22608;-29
2022/07/09 01:38:54;;;;;;;3.20;1.00;;;;;;;;;;102326;1332;22703;-28
2022/07/09 01:41:23;;;;;;;2.90;1.00;;;;;;;;;;102316;1335;22688;-29
2022/07/09 01:43:52;;;;;;;10.60;1.20;;;;;;;;;;102338;1335;23163;-28
2022/07/09 01:46:21;;;;;;;2.80;1.40;;;;;;;;;;102393;1335;22722;-24
2022/07/09 01:48:50;;;;;;;2.20;1.20;;;;;;;;;;102428;1335;22724;-25
2022/07/09 01:51:21;;;;;;;6.60;1.40;;;;;;;;;;102315;1335;22565;-26
2022/07/09 01:53:50;;;;;;;2.40;1.30;;;;;;;;;;102285;1335;22715;-25
2022/07/09 01:56:19;;;;;;;2.90;1.70;;;;;;;;;;102378;1335;22676;-24
2022/07/09 01:58:48;;;;;;;3.80;1.50;;;;;;;;;;102313;1335;22614;-28
2022/07/09 02:01:17;;;;;;;1.90;1.10;;;;;;;;;;102252;1334;22622;-28
2022/07/09 02:03:45;;;;;;;7.60;1.50;;;;;;;;;;102264;1334;22590;-28
2022/07/09 02:06:14;;;;;;;3.10;1.20;;;;;;;;;;102406;1335;22593;-22
2022/07/09 02:08:43;;;;;;;3.20;1.20;;;;;;;;;;102284;1335;22593;-25
2022/07/09 02:11:12;;;;;;;5.10;1.50;;;;;;;;;;102262;1335;22590;-24
2022/07/09 02:13:41;;;;;;;23.10;1.70;;;;;;;;;;102279;1334;22610;-24
2022/07/09 02:16:10;;;;;;;2.40;1.40;;;;;;;;;;102378;1335;22603;-25
2022/07/09 02:18:39;;;;;;;4.20;1.30;;;;;;;;;;102286;1335;22596;-29
2022/07/09 02:21:08;;;;;;;5.00;1.50;;;;;;;;;;102253;1335;22585;-27
2022/07/09 02:23:37;;;;;;;9.70;1.60;;;;;;;;;;102400;1335;22588;-27
2022/07/09 02:26:05;;;;;;;4.40;1.20;;;;;;;;;;102442;1334;22593;-25
2022/07/09 02:28:34;;;;;;;3.00;1.40;;;;;;;;;;102402;1335;22586;-30
2022/07/09 02:31:03;;;;;;;4.60;1.20;;;;;;;;;;102408;1335;22599;-28
2022/07/09 02:33:33;;;;;;;3.50;1.60;;;;;;;;;;102334;1335;22596;-24
2022/07/09 02:36:02;;;;;;;5.30;2.00;;;;;;;;;;102233;1335;22606;-25
2022/07/09 02:38:30;;;;;;;6.60;1.60;;;;;;;;;;102302;1335;22591;-25
2022/07/09 02:41:01;;;;;;;5.20;1.30;;;;;;;;;;101620;1335;1003363;-29
2022/07/09 02:43:29;;;;;;;4.20;1.50;;;;;;;;;;102307;1335;22593;-24
2022/07/09 02:45:58;;;;;;;3.00;1.80;;;;;;;;;;102247;1335;22597;-24
2022/07/09 02:48:27;;;;;;;5.40;2.00;;;;;;;;;;102262;1335;22600;-30
2022/07/09 02:50:56;;;;;;;1.70;1.10;;;;;;;;;;102305;1335;22764;-29
2022/07/09 02:53:25;;;;;;;2.70;1.20;;;;;;;;;;102338;1335;22590;-24
2022/07/09 02:55:53;;;;;;;3.50;1.00;;;;;;;;;;102381;1334;22648;-25
2022/07/09 02:58:22;;;;;;;4.00;1.60;;;;;;;;;;102300;1335;22616;-24
2022/07/09 03:00:51;;;;;;;6.10;1.20;;;;;;;;;;102393;1335;22643;-24
2022/07/09 03:03:23;;;;;;;3.40;1.60;;;;;;;;;;102404;1334;22997;-25
2022/07/09 03:05:52;;;;;;;11.90;1.50;;;;;;;;;;102309;1335;22889;-28
2022/07/09 03:08:21;;;;;;;4.90;1.40;;;;;;;;;;102237;1335;22594;-24
2022/07/09 03:10:50;;;;;;;4.30;1.40;;;;;;;;;;102220;1335;23056;-24
2022/07/09 03:13:19;;;;;;;3.70;1.30;;;;;;;;;;102414;1335;22612;-26
2022/07/09 03:15:49;;;;;;;4.30;1.60;;;;;;;;;;102374;1329;22589;-29
2022/07/09 03:18:17;;;;;;;2.20;1.00;;;;;;;;;;102259;1335;22664;-29
2022/07/09 03:20:47;;;;;;;6.80;1.80;;;;;;;;;;102343;1329;22600;-29
2022/07/09 03:23:16;;;;;;;3.10;1.30;;;;;;;;;;102402;1335;22589;-23
2022/07/09 03:25:44;;;;;;;4.80;1.90;;;;;;;;;;102310;1336;22679;-28
2022/07/09 03:28:13;;;;;;;2.70;1.30;;;;;;;;;;102231;1335;22593;-25
2022/07/09 03:30:42;;;;;;;3.10;1.10;;;;;;;;;;102280;1328;22589;-26
2022/07/09 03:33:11;;;;;;;1.40;1.10;;;;;;;;;;102369;1335;22606;-25
2022/07/09 03:35:40;;;;;;;1.00;0.70;;;;;;;;;;102371;1335;22588;-28
2022/07/09 03:38:09;;;;;;;1.40;0.70;;;;;;;;;;102309;1335;22595;-24
2022/07/09 03:40:37;;;;;;;3.80;1.60;;;;;;;;;;102465;1329;22631;-28
2022/07/09 03:43:06;;;;;;;6.90;2.00;;;;;;;;;;102332;1335;22601;-25
2022/07/09 03:45:35;;;;;;;2.90;1.70;;;;;;;;;;102365;1335;22592;-28
2022/07/09 03:48:04;;;;;;;1.70;1.10;;;;;;;;;;102304;1335;22683;-28
2022/07/09 03:50:33;;;;;;;2.70;1.30;;;;;;;;;;102285;1335;22613;-30
2022/07/09 03:53:02;;;;;;;4.50;1.20;;;;;;;;;;102317;1335;22592;-24
2022/07/09 03:55:31;;;;;;;3.40;1.30;;;;;;;;;;102351;1335;22606;-28
2022/07/09 03:57:59;;;;;;;7.30;1.10;;;;;;;;;;102377;1335;22606;-28
2022/07/09 04:00:28;;;;;;;4.00;1.60;;;;;;;;;;102280;1335;22583;-28
2022/07/09 04:02:57;;;;;;;3.00;1.30;;;;;;;;;;102276;1335;22596;-24
2022/07/09 04:05:26;;;;;;;1.40;1.00;;;;;;;;;;102380;1336;22619;-29
2022/07/09 04:07:55;;;;;;;7.30;2.00;;;;;;;;;;102421;1333;22611;-24
2022/07/09 04:10:24;;;;;;;2.60;1.10;;;;;;;;;;102259;1329;22607;-23
2022/07/09 04:12:52;;;;;;;1.80;1.10;;;;;;;;;;102352;1335;22595;-26
2022/07/09 04:15:21;;;;;;;8.20;1.30;;;;;;;;;;102353;1335;22680;-27
2022/07/09 04:17:50;;;;;;;3.40;1.40;;;;;;;;;;102374;1335;22724;-28
2022/07/09 04:20:19;;;;;;;1.50;1.00;;;;;;;;;;102366;1335;22585;-28
2022/07/09 04:22:48;;;;;;;2.70;1.30;;;;;;;;;;102376;1335;22763;-29
2022/07/09 04:25:17;;;;;;;1.00;0.90;;;;;;;;;;102343;1335;22594;-23
2022/07/09 04:27:46;;;;;;;9.90;1.50;;;;;;;;;;102379;1335;22597;-23
2022/07/09 04:30:15;;;;;;;4.30;1.40;;;;;;;;;;102266;1335;22610;-28
2022/07/09 04:32:44;;;;;;;3.90;1.20;;;;;;;;;;102309;1335;22725;-28
2022/07/09 04:35:12;;;;;;;4.10;1.80;;;;;;;;;;102296;1335;22580;-29
2022/07/09 04:37:41;;;;;;;6.10;1.70;;;;;;;;;;102398;1335;22609;-23
2022/07/09 04:40:11;;;;;;;3.10;1.70;;;;;;;;;;102364;1327;22735;-29
2022/07/09 04:42:40;;;;;;;3.10;1.10;;;;;;;;;;102364;1335;22581;-24
2022/07/09 04:45:09;;;;;;;16.80;1.60;;;;;;;;;;102403;1335;22678;-28
2022/07/09 04:47:37;;;;;;;12.10;1.70;;;;;;;;;;102460;1335;22604;-23
2022/07/09 04:50:07;;;;;;;9.40;1.10;;;;;;;;;;102440;1335;22600;-28
2022/07/09 04:52:35;;;;;;;5.60;1.30;;;;;;;;;;102338;1335;22615;-24
2022/07/09 04:55:05;;;;;;;3.00;1.60;;;;;;;;;;102305;1335;22577;-28
2022/07/09 04:57:34;;;;;;;2.40;1.40;;;;;;;;;;102307;1335;22628;-26
2022/07/09 05:00:03;;;;;;;6.20;1.60;;;;;;;;;;102347;1335;22603;-29
2022/07/09 05:02:32;;;;;;;3.10;1.40;;;;;;;;;;102389;1335;22591;-24
2022/07/09 05:05:03;;;;;;;1.40;1.00;;;;;;;;;;102299;1335;22868;-24
2022/07/09 05:07:32;;;;;;;2.80;1.00;;;;;;;;;;102353;1335;22614;-28
2022/07/09 05:10:01;;;;;;;6.80;1.50;;;;;;;;;;102209;1335;22590;-23
2022/07/09 05:12:30;;;;;;;4.80;1.20;;;;;;;;;;102335;1335;22596;-23
2022/07/09 05:14:59;;;;;;;6.10;1.50;;;;;;;;;;102289;1335;22599;-24
2022/07/09 05:17:28;;;;;;;4.40;1.60;;;;;;;;;;102378;1334;22607;-26
2022/07/09 05:19:57;;;;;;;2.20;0.90;;;;;;;;;;102341;1335;22662;-28
2022/07/09 05:22:25;;;;;;;1.80;1.00;;;;;;;;;;102264;1335;22602;-28
2022/07/09 05:24:54;;;;;;;8.10;2.20;;;;;;;;;;102385;1335;22591;-30
2022/07/09 05:27:23;;;;;;;7.60;1.50;;;;;;;;;;102457;1335;22591;-28
2022/07/09 05:29:52;;;;;;;5.40;0.80;;;;;;;;;;102287;1331;22652;-28
2022/07/09 05:32:21;;;;;;;4.30;1.10;;;;;;;;;;102243;1336;22739;-30
2022/07/09 05:34:50;;;;;;;4.20;0.80;;;;;;;;;;102397;1335;22600;-28
2022/07/09 05:37:18;;;;;;;9.90;1.60;;;;;;;;;;102331;1335;22601;-26
2022/07/09 05:39:47;;;;;;;1.90;1.10;;;;;;;;;;102378;1335;22600;-29
2022/07/09 05:42:16;;;;;;;8.30;1.00;;;;;;;;;;102284;1334;22742;-28
2022/07/09 05:44:45;;;;;;;1.70;1.00;;;;;;;;;;102340;1335;22846;-37
2022/07/09 05:47:15;;;;;;;5.60;1.10;;;;;;;;;;102301;1329;22722;-25
2022/07/09 05:49:44;;;;;;;2.70;1.10;;;;;;;;;;102366;1335;22605;-29
2022/07/09 05:52:12;;;;;;;7.30;1.20;;;;;;;;;;102347;1335;22602;-29
2022/07/09 05:54:41;;;;;;;3.00;0.90;;;;;;;;;;102386;1335;22600;-28
2022/07/09 05:57:10;;;;;;;2.00;0.80;;;;;;;;;;102331;1335;22569;-27
2022/07/09 05:59:39;;;;;;;1.90;1.00;;;;;;;;;;102327;1327;22590;-24
2022/07/09 06:02:08;;;;;;;3.60;1.00;;;;;;;;;;102304;1335;22707;-30
2022/07/09 06:04:36;;;;;;;1.70;0.70;;;;;;;;;;102340;1335;22605;-27
2022/07/09 06:07:05;;;;;;;6.90;1.20;;;;;;;;;;102339;1335;22588;-25
2022/07/09 06:09:34;;;;;;;2.10;0.70;;;;;;;;;;102343;1334;22592;-31
2022/07/09 06:12:03;;;;;;;1.90;0.60;;;;;;;;;;102327;1335;22719;-26
2022/07/09 06:14:32;;;;;;;4.40;0.80;;;;;;;;;;102222;1329;22613;-25
2022/07/09 06:17:05;;;;;;;1.00;0.60;;;;;;;;;;102313;1335;77227;-27
2022/07/09 06:19:34;;;;;;;5.50;1.00;;;;;;;;;;102325;1335;22606;-28
2022/07/09 06:22:03;;;;;;;1.40;0.80;;;;;;;;;;102353;1335;22592;-29
2022/07/09 06:24:32;;;;;;;2.40;0.80;;;;;;;;;;102256;1335;22605;-24
2022/07/09 06:27:01;;;;;;;1.20;0.60;;;;;;;;;;102386;1335;25246;-29
2022/07/09 06:29:30;;;;;;;11.20;0.70;;;;;;;;;;102319;1329;22607;-25
2022/07/09 06:32:00;;;;;;;2.10;0.70;;;;;;;;;;102337;1335;22643;-29
2022/07/09 06:34:29;;;;;;;2.60;0.70;;;;;;;;;;102361;1335;22607;-31
2022/07/09 06:36:58;;;;;;;6.20;1.00;;;;;;;;;;102355;1335;22595;-31
2022/07/09 06:42:03;;;;;;;2.50;1.20;;;;;;;;;;102406;1335;22591;-24
2022/07/09 06:44:33;;;;;;;3.40;1.00;;;;;;;;;;102330;1335;22640;-25
2022/07/09 06:47:02;;;;;;;5.70;0.60;;;;;;;;;;102334;1335;22628;-29
2022/07/09 06:49:31;;;;;;;1.20;0.80;;;;;;;;;;102263;1335;22614;-30
2022/07/09 06:52:00;;;;;;;2.20;0.80;;;;;;;;;;102286;1335;22617;-29
2022/07/09 06:54:29;;;;;;;2.50;0.90;;;;;;;;;;102305;1335;22595;-25
2022/07/09 06:56:57;;;;;;;3.20;1.10;;;;;;;;;;102394;1334;22580;-25
2022/07/09 06:59:26;;;;;;;1.70;0.50;;;;;;;;;;102315;1334;22604;-24
2022/07/09 07:01:55;;;;;;;2.40;0.80;;;;;;;;;;102379;1335;22573;-27
2022/07/09 07:04:25;;;;;;;1.20;0.30;;;;;;;;;;102308;1335;22602;-24
2022/07/09 07:06:53;;;;;;;9.00;0.70;;;;;;;;;;102397;1335;22663;-24
2022/07/09 07:09:22;;;;;;;2.70;0.90;;;;;;;;;;102317;1335;22595;-29
2022/07/09 07:11:51;;;;;;;2.50;0.80;;;;;;;;;;102343;1335;22607;-31
2022/07/09 07:14:20;;;;;;;2.80;1.20;;;;;;;;;;102359;1335;22607;-30
2022/07/09 07:16:49;;;;;;;1.30;0.80;;;;;;;;;;102380;1335;22604;-29
2022/07/09 07:19:20;;;;;;;1.30;0.50;;;;;;;;;;102336;1329;22831;-26
2022/07/09 07:21:49;;;;;;;1.10;0.60;;;;;;;;;;102305;1335;22726;-29
2022/07/09 07:24:18;;;;;;;2.70;0.80;;;;;;;;;;102368;1335;22622;-29
2022/07/09 07:26:47;;;;;;;1.40;0.60;;;;;;;;;;102325;1335;22597;-25
2022/07/09 07:29:15;;;;;;;1.00;0.60;;;;;;;;;;102280;1335;22612;-25
2022/07/09 07:31:44;;;;;;;2.60;0.40;;;;;;;;;;102281;1335;22656;-29
2022/07/09 07:34:13;;;;;;;1.00;0.40;;;;;;;;;;102396;1334;22587;-30
2022/07/09 07:36:42;;;;;;;0.50;0.50;;;;;;;;;;102430;1335;22609;-28
2022/07/09 07:39:11;;;;;;;0.80;0.50;;;;;;;;;;102298;1335;22667;-24
2022/07/09 07:41:40;;;;;;;0.80;0.50;;;;;;;;;;102337;1328;22604;-28
2022/07/09 07:44:08;;;;;;;2.20;0.90;;;;;;;;;;102354;1335;22600;-29
2022/07/09 07:46:37;;;;;;;1.20;0.40;;;;;;;;;;102371;1336;22704;-31
2022/07/09 07:49:06;;;;;;;0.90;0.40;;;;;;;;;;102354;1335;22595;-31
2022/07/09 07:51:35;;;;;;;1.40;0.30;;;;;;;;;;102445;1335;22590;-24
2022/07/09 07:54:04;;;;;;;0.70;0.30;;;;;;;;;;102291;1335;22607;-27
2022/07/09 07:56:36;;;;;;;1.70;0.90;;;;;;;;;;102323;1335;22613;-27
2022/07/09 07:59:05;;;;;;;3.10;0.50;;;;;;;;;;102358;1335;22604;-29
2022/07/09 08:01:33;;;;;;;0.70;0.40;;;;;;;;;;102348;1335;22665;-29
2022/07/09 08:04:02;;;;;;;1.80;0.60;;;;;;;;;;102353;1335;22592;-29
2022/07/09 08:06:31;;;;;;;2.00;0.60;;;;;;;;;;102411;1335;22593;-29
2022/07/09 08:09:00;;;;;;;1.30;0.40;;;;;;;;;;102343;1335;22609;-28
2022/07/09 08:11:29;;;;;;;6.50;0.80;;;;;;;;;;102359;1335;22673;-26
2022/07/09 08:13:58;;;;;;;0.90;0.40;;;;;;;;;;102323;1335;22637;-25
2022/07/09 08:16:26;;;;;;;1.00;0.20;;;;;;;;;;102394;1335;22617;-24
2022/07/09 08:18:55;;;;;;;0.80;0.40;;;;;;;;;;102386;1335;22637;-29
2022/07/09 08:21:24;;;;;;;0.80;0.40;;;;;;;;;;102391;1335;22606;-25
2022/07/09 08:23:54;;;;;;;1.40;0.40;;;;;;;;;;102373;1329;22612;-29
2022/07/09 08:26:23;;;;;;;1.20;0.50;;;;;;;;;;102421;1335;22641;-25
2022/07/09 08:28:52;;;;;;;0.40;0.20;;;;;;;;;;102293;1335;22615;-29
2022/07/09 08:31:22;;;;;;;0.80;0.40;;;;;;;;;;102316;1335;22693;-29
2022/07/09 08:33:51;;;;;;;2.10;0.40;;;;;;;;;;102438;1335;22675;-31
2022/07/09 08:36:20;;;;;;;0.90;0.20;;;;;;;;;;102310;1335;22604;-29
2022/07/09 08:38:49;;;;;;;1.20;0.50;;;;;;;;;;102260;1335;22722;-25
2022/07/09 08:41:19;;;;;;;1.10;0.50;;;;;;;;;;102325;1335;22723;-27
2022/07/09 08:43:51;;;;;;;0.60;0.30;;;;;;;;;;102386;1335;22588;-25
2022/07/09 08:46:20;;;;;;;0.10;0.00;;;;;;;;;;102318;1335;22712;-29
2022/07/09 08:48:48;;;;;;;1.50;0.50;;;;;;;;;;102305;1336;22597;-28
2022/07/09 08:51:17;;;;;;;0.80;0.30;;;;;;;;;;102362;1329;22598;-29
2022/07/09 08:53:46;;;;;;;2.90;0.30;;;;;;;;;;102316;1335;22600;-25
2022/07/09 08:56:15;;;;;;;1.50;0.30;;;;;;;;;;102446;1335;22612;-29
2022/07/09 08:58:44;;;;;;;1.60;0.50;;;;;;;;;;102334;1335;22677;-25
2022/07/09 09:01:14;;;;;;;0.60;0.30;;;;;;;;;;102334;1335;22585;-26
2022/07/09 09:03:43;;;;;;;0.30;0.20;;;;;;;;;;102238;1335;22725;-26
2022/07/09 09:06:13;;;;;;;0.20;0.20;;;;;;;;;;102319;1335;22584;-26
2022/07/09 09:08:42;;;;;;;7.70;0.60;;;;;;;;;;102378;1335;22657;-26
2022/07/09 09:11:13;;;;;;;4.90;0.50;;;;;;;;;;102337;1335;22620;-24
2022/07/09 09:13:43;;;;;;;0.80;0.40;;;;;;;;;;102342;1335;22599;-24
2022/07/09 09:16:13;;;;;;;1.10;0.80;;;;;;;;;;102278;1335;22600;-25
2022/07/09 09:18:42;;;;;;;17.90;1.00;;;;;;;;;;101550;1336;1003180;-25
2022/07/09 09:21:11;;;;;;;1.10;0.50;;;;;;;;;;102261;1329;22725;-29
2022/07/09 09:23:43;;;;;;;1.80;0.50;;;;;;;;;;102384;1335;22655;-24
2022/07/09 09:26:13;;;;;;;0.40;0.40;;;;;;;;;;102333;1335;22596;-29
2022/07/09 09:28:46;;;;;;;1.70;0.20;;;;;;;;;;102281;1335;22910;-25
2022/07/09 09:31:18;;;;;;;2.30;0.60;;;;;;;;;;102403;1335;22669;-29
2022/07/09 09:33:47;;;;;;;0.60;0.30;;;;;;;;;;102357;1335;22729;-24
2022/07/09 09:36:19;;;;;;;1.80;0.20;;;;;;;;;;102295;1335;22600;-29
2022/07/09 09:38:48;;;;;;;1.00;0.20;;;;;;;;;;102347;1335;22786;-29
2022/07/09 09:41:21;;;;;;;0.80;0.30;;;;;;;;;;101560;1335;1003659;-29
2022/07/09 09:43:50;;;;;;;0.90;0.30;;;;;;;;;;102357;1335;22666;-29
2022/07/09 09:46:19;;;;;;;1.20;0.40;;;;;;;;;;102326;1330;22583;-28
2022/07/09 09:48:48;;;;;;;0.20;0.20;;;;;;;;;;102360;1334;22609;-26
2022/07/09 09:51:17;;;;;;;3.00;0.50;;;;;;;;;;102340;1329;22634;-25
2022/07/09 09:53:45;;;;;;;3.90;0.40;;;;;;;;;;102357;1335;22622;-26
2022/07/09 09:56:14;;;;;;;0.60;0.40;;;;;;;;;;102321;1335;22593;-29
2022/07/09 09:58:43;;;;;;;1.10;0.40;;;;;;;;;;102375;1334;22600;-29
2022/07/09 10:01:12;;;;;;;2.40;0.50;;;;;;;;;;102303;1328;22582;-25
2022/07/09 10:03:41;;;;;;;0.40;0.20;;;;;;;;;;102268;1335;22580;-29
2022/07/09 10:06:10;;;;;;;1.30;0.50;;;;;;;;;;102306;1328;22651;-29
2022/07/09 10:08:47;;;;;;;0.70;0.40;;;;;;;;;;102351;1335;22585;-25
2022/07/09 10:11:16;;;;;;;2.20;0.70;;;;;;;;;;102288;1335;22596;-31
2022/07/09 10:13:48;;;;;;;1.60;0.40;;;;;;;;;;102398;1335;22595;-31
2022/07/09 10:16:17;;;;;;;0.90;0.20;;;;;;;;;;102270;1335;22619;-29
2022/07/09 10:18:50;;;;;;;5.20;0.20;;;;;;;;;;102366;1334;22704;-29
2022/07/09 10:21:30;;;;;;;0.60;0.20;;;;;;;;;;102346;1335;23044;-26
2022/07/09 10:23:59;;;;;;;1.20;0.30;;;;;;;;;;102365;1335;22590;-29
2022/07/09 10:26:32;;;;;;;0.20;0.20;;;;;;;;;;102334;1335;22623;-27
2022/07/09 10:29:00;;;;;;;1.90;0.50;;;;;;;;;;102364;1335;22588;-31
2022/07/09 10:31:29;;;;;;;1.80;0.40;;;;;;;;;;102281;1335;22590;-25
2022/07/09 10:34:01;;;;;;;3.40;0.70;;;;;;;;;;102374;1334;22702;-31
2022/07/09 10:36:30;;;;;;;3.90;0.50;;;;;;;;;;102228;1335;22769;-24
2022/07/09 10:38:59;;;;;;;2.10;0.40;;;;;;;;;;102247;1335;22602;-25
2022/07/09 10:41:28;;;;;;;0.30;0.20;;;;;;;;;;102288;1335;22591;-24
2022/07/09 10:43:57;;;;;;;0.90;0.30;;;;;;;;;;102343;1333;22609;-25
2022/07/09 10:46:26;;;;;;;0.90;0.30;;;;;;;;;;102316;1335;22628;-29
2022/07/09 10:48:55;;;;;;;2.50;0.50;;;;;;;;;;102321;1335;22598;-29
2022/07/09 10:51:24;;;;;;;1.10;0.40;;;;;;;;;;102377;1335;22899;-30
2022/07/09 10:53:53;;;;;;;1.50;0.30;;;;;;;;;;102325;1335;22588;-29
2022/07/09 10:56:22;;;;;;;0.50;0.30;;;;;;;;;;102347;1335;22585;-25
2022/07/09 10:58:51;;;;;;;1.30;0.50;;;;;;;;;;102328;1335;22600;-29
2022/07/09 11:01:21;;;;;;;0.80;0.20;;;;;;;;;;102321;1335;22609;-25
2022/07/09 11:03:50;;;;;;;1.40;0.40;;;;;;;;;;102287;1335;22601;-25
2022/07/09 11:06:19;;;;;;;0.30;0.30;;;;;;;;;;102338;1335;22604;-30
2022/07/09 11:08:48;;;;;;;2.60;0.50;;;;;;;;;;102399;1335;22600;-25
2022/07/09 11:11:20;;;;;;;0.80;0.30;;;;;;;;;;102345;1335;22789;-25
2022/07/09 11:13:50;;;;;;;1.10;0.20;;;;;;;;;;102373;1335;22600;-24
2022/07/09 11:16:22;;;;;;;1.20;0.30;;;;;;;;;;102350;1335;22654;-29
2022/07/09 11:18:51;;;;;;;0.80;0.50;;;;;;;;;;102394;1329;22600;-29
2022/07/09 11:21:21;;;;;;;0.70;0.30;;;;;;;;;;102424;1327;24080;-31
2022/07/09 11:23:50;;;;;;;0.00;0.00;;;;;;;;;;102287;1335;22668;-30
2022/07/09 11:26:19;;;;;;;0.60;0.40;;;;;;;;;;102368;1335;22594;-26
2022/07/09 11:28:48;;;;;;;1.70;0.60;;;;;;;;;;102358;1335;22598;-24
2022/07/09 11:31:17;;;;;;;0.40;0.30;;;;;;;;;;102370;1329;22582;-27
2022/07/09 11:36:18;;;;;;;1.30;0.30;;;;;;;;;;102343;1335;22617;-25
2022/07/09 11:38:48;;;;;;;1.20;0.30;;;;;;;;;;102260;1335;22590;-24
2022/07/09 11:41:17;;;;;;;0.50;0.30;;;;;;;;;;102360;1335;22683;-25
2022/07/09 11:43:56;;;;;;;0.60;0.30;;;;;;;;;;102353;1335;22679;-24
2022/07/09 11:46:33;;;;;;;3.40;0.30;;;;;;;;;;102275;1335;22657;-28
2022/07/09 11:49:02;;;;;;;0.90;0.50;;;;;;;;;;102346;1335;22589;-26
2022/07/09 11:51:31;;;;;;;4.30;0.30;;;;;;;;;;102322;1335;22696;-26
2022/07/09 11:54:01;;;;;;;0.80;0.50;;;;;;;;;;102369;1335;22711;-26
2022/07/09 11:56:33;;;;;;;0.40;0.30;;;;;;;;;;102366;1335;22585;-28
2022/07/09 11:59:11;;;;;;;1.40;0.10;;;;;;;;;;102341;1328;22600;-25
2022/07/09 12:01:48;;;;;;;0.40;0.40;;;;;;;;;;102402;1335;22601;-25
2022/07/09 12:04:18;;;;;;;0.50;0.40;;;;;;;;;;102298;1335;22590;-25
2022/07/09 12:06:47;;;;;;;2.30;0.50;;;;;;;;;;102332;1335;22735;-28
2022/07/09 12:09:26;;;;;;;2.10;0.60;;;;;;;;;;102338;1335;22596;-31
2022/07/09 12:11:55;;;;;;;0.10;0.10;;;;;;;;;;102343;1335;22775;-30
2022/07/09 12:14:23;;;;;;;1.50;0.50;;;;;;;;;;102434;1328;22610;-25
2022/07/09 12:16:52;;;;;;;7.50;0.90;;;;;;;;;;102401;1335;22576;-26
2022/07/09 12:19:21;;;;;;;0.90;0.30;;;;;;;;;;102280;1335;22982;-25
2022/07/09 12:21:50;;;;;;;1.40;0.50;;;;;;;;;;102400;1335;22594;-24
2022/07/09 12:24:19;;;;;;;0.60;0.30;;;;;;;;;;102342;1329;22616;-29
2022/07/09 12:26:48;;;;;;;1.30;0.50;;;;;;;;;;102334;1335;22666;-25
2022/07/09 12:29:17;;;;;;;2.90;0.70;;;;;;;;;;102383;1335;22605;-25
2022/07/09 12:31:45;;;;;;;1.40;0.60;;;;;;;;;;102430;1335;22607;-23
2022/07/09 12:34:14;;;;;;;0.20;0.20;;;;;;;;;;102368;1335;22597;-29
2022/07/09 12:36:43;;;;;;;0.60;0.20;;;;;;;;;;102354;1329;22674;-30
2022/07/09 12:39:12;;;;;;;4.70;0.30;;;;;;;;;;102382;1335;22600;-31
2022/07/09 12:41:41;;;;;;;0.90;0.40;;;;;;;;;;102294;1332;22590;-25
2022/07/09 12:44:10;;;;;;;1.20;0.50;;;;;;;;;;102391;1335;22658;-27
2022/07/09 12:46:39;;;;;;;0.40;0.30;;;;;;;;;;102242;1335;22621;-28
2022/07/09 12:49:08;;;;;;;1.20;0.40;;;;;;;;;;102344;1335;22581;-31
2022/07/09 12:51:37;;;;;;;1.50;0.20;;;;;;;;;;102320;1335;22638;-31
2022/07/09 12:54:06;;;;;;;0.70;0.30;;;;;;;;;;102311;1335;22618;-27
2022/07/09 12:56:35;;;;;;;0.40;0.20;;;;;;;;;;102364;1335;22593;-29
2022/07/09 12:59:04;;;;;;;0.50;0.40;;;;;;;;;;102348;1335;22618;-25
2022/07/09 13:01:32;;;;;;;1.30;0.50;;;;;;;;;;102347;1329;22605;-31
2022/07/09 13:04:01;;;;;;;4.80;0.60;;;;;;;;;;102452;1335;22624;-26
2022/07/09 13:06:31;;;;;;;2.00;0.40;;;;;;;;;;102356;1335;22597;-29
2022/07/09 13:09:00;;;;;;;0.60;0.20;;;;;;;;;;102386;1335;22581;-30
2022/07/09 13:11:29;;;;;;;1.00;0.40;;;;;;;;;;102352;1329;22612;-26
2022/07/09 13:13:58;;;;;;;3.10;0.30;;;;;;;;;;102374;1334;22736;-30
2022/07/09 13:16:26;;;;;;;0.60;0.10;;;;;;;;;;102356;1330;22599;-27
2022/07/09 13:18:55;;;;;;;0.70;0.30;;;;;;;;;;102211;1335;22583;-25
2022/07/09 13:21:33;;;;;;;3.60;0.80;;;;;;;;;;102401;1334;22589;-29
2022/07/09 13:24:02;;;;;;;0.90;0.30;;;;;;;;;;102329;1335;22617;-25
2022/07/09 13:26:31;;;;;;;0.90;0.30;;;;;;;;;;102311;1334;22585;-29
2022/07/09 13:29:00;;;;;;;1.10;0.60;;;;;;;;;;102401;1335;22629;-28
2022/07/09 13:31:29;;;;;;;1.90;0.40;;;;;;;;;;102300;1335;22667;-28
2022/07/09 13:33:57;;;;;;;1.00;0.10;;;;;;;;;;102221;1335;22738;-27
2022/07/09 13:36:26;;;;;;;0.70;0.20;;;;;;;;;;102375;1329;22664;-29
2022/07/09 13:38:55;;;;;;;1.10;0.40;;;;;;;;;;102376;1335;23051;-29
2022/07/09 13:41:24;;;;;;;5.70;0.60;;;;;;;;;;102261;1334;22616;-29
2022/07/09 13:43:53;;;;;;;1.40;0.40;;;;;;;;;;102273;1335;22715;-29
2022/07/09 13:46:22;;;;;;;0.90;0.30;;;;;;;;;;102366;1332;25259;-26
2022/07/09 13:48:51;;;;;;;0.40;0.20;;;;;;;;;;102309;1335;22723;-25
2022/07/09 13:51:19;;;;;;;0.60;0.40;;;;;;;;;;102315;1335;22595;-25
2022/07/09 13:53:48;;;;;;;1.00;0.40;;;;;;;;;;102351;1335;22601;-27
2022/07/09 13:56:18;;;;;;;0.80;0.30;;;;;;;;;;102314;1335;22593;-28
2022/07/09 13:58:47;;;;;;;0.60;0.40;;;;;;;;;;102302;1335;22655;-29
2022/07/09 14:01:16;;;;;;;2.80;0.50;;;;;;;;;;102405;1335;22607;-27
2022/07/09 14:03:45;;;;;;;1.40;0.80;;;;;;;;;;102352;1335;22603;-24
2022/07/09 14:06:14;;;;;;;0.70;0.50;;;;;;;;;;102318;1335;22586;-29
2022/07/09 14:08:43;;;;;;;0.60;0.20;;;;;;;;;;102280;1335;22862;-27
2022/07/09 14:11:12;;;;;;;0.20;0.20;;;;;;;;;;101725;1335;1003969;-24
2022/07/09 14:13:42;;;;;;;1.60;0.60;;;;;;;;;;102349;1335;22608;-29
2022/07/09 14:16:11;;;;;;;2.70;0.50;;;;;;;;;;102251;1335;22598;-25
2022/07/09 14:18:40;;;;;;;0.60;0.20;;;;;;;;;;102184;1335;205389;-25
2022/07/09 14:21:09;;;;;;;2.60;0.50;;;;;;;;;;102263;1336;25335;-26
2022/07/09 14:23:38;;;;;;;3.50;0.50;;;;;;;;;;102215;1336;22601;-28
2022/07/09 14:26:07;;;;;;;1.90;0.40;;;;;;;;;;102393;1335;22616;-31
2022/07/09 14:28:36;;;;;;;0.70;0.30;;;;;;;;;;102377;1335;22587;-31
2022/07/09 14:31:05;;;;;;;1.10;0.40;;;;;;;;;;102447;1335;22576;-29
2022/07/09 14:33:33;;;;;;;1.40;0.40;;;;;;;;;;102327;1328;22690;-29
2022/07/09 14:36:02;;;;;;;1.30;0.30;;;;;;;;;;102401;1335;22606;-29
2022/07/09 14:38:31;;;;;;;1.10;0.50;;;;;;;;;;102211;1336;22667;-25
2022/07/09 14:41:00;;;;;;;2.10;0.40;;;;;;;;;;102317;1328;22545;-25
2022/07/09 14:43:29;;;;;;;1.00;0.60;;;;;;;;;;102237;1335;22597;-27
2022/07/09 14:45:58;;;;;;;5.50;0.70;;;;;;;;;;102315;1335;22582;-27